createdAt,value
2018-02-05T00:00:32.511Z,52.20
2018-02-05T00:02:59.960Z,52.30
2018-02-05T00:05:27.423Z,52.10
2018-02-05T00:07:54.859Z,52.50
2018-02-05T00:10:22.280Z,52.50
2018-02-05T00:12:49.795Z,52.10
2018-02-05T00:15:17.211Z,52.20
2018-02-05T00:17:44.711Z,52.20
2018-02-05T00:20:12.135Z,52.30
2018-02-05T00:22:39.619Z,52.70
2018-02-05T00:25:07.071Z,52.10
2018-02-05T00:27:34.511Z,52.30
2018-02-05T00:30:01.987Z,52.50
2018-02-05T00:32:29.438Z,52.40
2018-02-05T00:34:56.871Z,52.20
2018-02-05T00:37:24.304Z,52.10
2018-02-05T00:39:51.824Z,52.20
2018-02-05T00:42:19.267Z,52.20
2018-02-05T00:44:47.031Z,52.40
2018-02-05T00:47:14.667Z,52.20
2018-02-05T00:49:42.251Z,51.90
2018-02-05T00:52:09.681Z,51.50
2018-02-05T00:54:37.106Z,51.80
2018-02-05T00:57:04.532Z,51.70
2018-02-05T00:59:32.078Z,51.50
2018-02-05T01:01:59.608Z,51.30
2018-02-05T01:04:27.041Z,51.10
2018-02-05T01:06:54.760Z,51.20
2018-02-05T01:09:22.387Z,51.00
2018-02-05T01:11:49.876Z,50.80
2018-02-05T01:14:17.335Z,50.70
2018-02-05T01:16:44.867Z,50.90
2018-02-05T01:19:12.304Z,51.00
2018-02-05T01:21:39.725Z,51.00
2018-02-05T01:24:07.151Z,51.00
2018-02-05T01:26:34.711Z,51.00
2018-02-05T01:29:02.167Z,50.70
2018-02-05T01:31:29.619Z,50.90
2018-02-05T01:33:57.048Z,50.90
2018-02-05T01:36:24.548Z,50.60
2018-02-05T01:38:52.168Z,50.70
2018-02-05T01:41:19.751Z,50.70
2018-02-05T01:43:47.175Z,50.80
2018-02-05T01:46:14.607Z,50.70
2018-02-05T01:48:42.034Z,50.60
2018-02-05T01:51:09.579Z,50.60
2018-02-05T01:53:37.211Z,50.30
2018-02-05T01:56:04.796Z,50.40
2018-02-05T01:58:32.215Z,50.30
2018-02-05T02:00:59.711Z,50.20
2018-02-05T02:03:27.139Z,50.20
2018-02-05T02:05:54.565Z,50.20
2018-02-05T02:08:22.083Z,50.20
2018-02-05T02:10:49.531Z,50.50
2018-02-05T02:13:16.964Z,50.10
2018-02-05T02:15:44.467Z,50.10
2018-02-05T02:18:11.913Z,50.30
2018-02-05T02:20:39.363Z,50.10
2018-02-05T02:23:06.799Z,49.90
2018-02-05T02:25:34.275Z,50.00
2018-02-05T02:28:01.736Z,50.00
2018-02-05T02:30:29.183Z,50.10
2018-02-05T02:32:56.842Z,50.40
2018-02-05T02:35:24.366Z,50.60
2018-02-05T02:37:51.872Z,50.50
2018-02-05T02:40:19.319Z,50.00
2018-02-05T02:42:46.958Z,50.00
2018-02-05T02:45:14.539Z,50.00
2018-02-05T02:47:42.003Z,50.20
2018-02-05T02:50:09.463Z,50.10
2018-02-05T02:52:36.879Z,50.30
2018-02-05T02:55:04.311Z,50.50
2018-02-05T02:57:31.761Z,50.70
2018-02-05T02:59:59.211Z,50.80
2018-02-05T03:02:26.639Z,50.80
2018-02-05T03:04:54.201Z,50.80
2018-02-05T03:07:21.625Z,51.20
2018-02-05T03:09:49.182Z,51.40
2018-02-05T03:12:16.723Z,51.50
2018-02-05T03:14:44.183Z,51.50
2018-02-05T03:17:11.775Z,51.50
2018-02-05T03:19:39.539Z,51.50
2018-02-05T03:22:07.000Z,51.40
2018-02-05T03:24:34.427Z,51.40
2018-02-05T03:27:01.851Z,51.30
2018-02-05T03:29:29.363Z,51.20
2018-02-05T03:31:56.804Z,51.80
2018-02-05T03:34:24.251Z,51.00
2018-02-05T03:36:51.683Z,51.30
2018-02-05T03:39:20.024Z,51.90
2018-02-05T03:41:47.507Z,51.90
2018-02-05T03:44:14.926Z,51.80
2018-02-05T03:46:42.481Z,51.80
2018-02-05T03:49:09.911Z,51.90
2018-02-05T03:51:37.396Z,51.50
2018-02-05T03:54:04.818Z,51.40
2018-02-05T03:56:32.315Z,51.30
2018-02-05T03:58:59.939Z,51.30
2018-02-05T04:01:27.410Z,51.30
2018-02-05T04:03:54.891Z,51.20
2018-02-05T04:06:22.333Z,51.10
2018-02-05T04:08:49.820Z,51.10
2018-02-05T04:11:17.351Z,50.90
2018-02-05T04:13:44.975Z,50.70
2018-02-05T04:16:12.568Z,50.60
2018-02-05T04:18:40.024Z,50.50
2018-02-05T04:21:07.483Z,50.30
2018-02-05T04:23:34.903Z,50.20
2018-02-05T04:26:02.406Z,50.20
2018-02-05T04:28:30.164Z,50.10
2018-02-05T04:30:57.803Z,50.00
2018-02-05T04:33:25.387Z,50.30
2018-02-05T04:35:52.863Z,50.30
2018-02-05T04:38:20.397Z,50.20
2018-02-05T04:40:47.854Z,50.20
2018-02-05T04:43:15.383Z,50.20
2018-02-05T04:45:42.879Z,50.40
2018-02-05T04:48:10.454Z,50.20
2018-02-05T04:50:37.888Z,50.10
2018-02-05T04:53:05.512Z,49.90
2018-02-05T04:55:33.103Z,50.60
2018-02-05T04:58:00.563Z,49.70
2018-02-05T05:00:28.088Z,49.40
2018-02-05T05:02:55.780Z,49.00
2018-02-05T05:05:23.539Z,48.80
2018-02-05T05:07:50.999Z,48.70
2018-02-05T05:10:18.419Z,48.60
2018-02-05T05:12:45.912Z,48.50
2018-02-05T05:15:13.551Z,48.20
2018-02-05T05:17:41.080Z,48.00
2018-02-05T05:20:08.783Z,48.00
2018-02-05T05:22:36.255Z,47.90
2018-02-05T05:25:03.804Z,47.70
2018-02-05T05:27:31.248Z,47.90
2018-02-05T05:29:58.676Z,47.90
2018-02-05T05:32:26.103Z,47.60
2018-02-05T05:34:53.647Z,47.70
2018-02-05T05:37:21.390Z,47.60
2018-02-05T05:39:48.819Z,47.40
2018-02-05T05:42:16.256Z,47.70
2018-02-05T05:44:43.755Z,47.70
2018-02-05T05:47:11.219Z,47.70
2018-02-05T05:49:38.663Z,47.80
2018-02-05T05:52:06.075Z,47.60
2018-02-05T05:54:33.503Z,47.50
2018-02-05T05:57:01.696Z,47.40
2018-02-05T05:59:29.363Z,47.40
2018-02-05T06:01:56.784Z,47.40
2018-02-05T06:04:24.240Z,47.40
2018-02-05T06:06:51.669Z,47.40
2018-02-05T06:09:19.249Z,47.30
2018-02-05T06:11:46.675Z,47.70
2018-02-05T06:14:14.108Z,48.40
2018-02-05T06:16:41.536Z,48.00
2018-02-05T06:19:08.991Z,48.40
2018-02-05T06:21:36.431Z,48.50
2018-02-05T06:24:03.979Z,48.60
2018-02-05T06:26:31.403Z,48.60
2018-02-05T06:28:58.911Z,48.70
2018-02-05T06:31:26.350Z,48.60
2018-02-05T06:33:53.788Z,48.70
2018-02-05T06:36:21.237Z,48.90
2018-02-05T06:38:48.721Z,48.90
2018-02-05T06:41:16.377Z,48.70
2018-02-05T06:43:44.251Z,48.60
2018-02-05T06:46:12.008Z,48.70
2018-02-05T06:48:39.427Z,48.90
2018-02-05T06:51:18.523Z,48.90
2018-02-05T06:53:57.816Z,48.80
2018-02-05T06:56:25.807Z,48.70
2018-02-05T06:58:53.438Z,48.90
2018-02-05T07:01:21.030Z,49.00
2018-02-05T07:03:48.466Z,49.00
2018-02-05T07:06:15.906Z,48.90
2018-02-05T07:08:43.395Z,48.90
2018-02-05T07:11:11.027Z,48.70
2018-02-05T07:13:38.447Z,48.30
2018-02-05T07:16:06.652Z,47.20
2018-02-05T07:18:34.067Z,47.20
2018-02-05T07:21:01.512Z,47.30
2018-02-05T07:23:29.050Z,47.30
2018-02-05T07:25:56.816Z,47.30
2018-02-05T07:28:24.250Z,47.30
2018-02-05T07:30:51.679Z,46.50
2018-02-05T07:33:19.102Z,46.20
2018-02-05T07:35:46.539Z,46.20
2018-02-05T07:38:13.977Z,46.10
2018-02-05T07:40:41.547Z,46.00
2018-02-05T07:43:09.314Z,45.60
2018-02-05T07:45:36.733Z,45.30
2018-02-05T07:48:04.163Z,45.20
2018-02-05T07:50:31.588Z,45.10
2018-02-05T07:52:59.051Z,44.90
2018-02-05T07:55:26.610Z,44.80
2018-02-05T07:57:54.356Z,44.40
2018-02-05T08:00:22.111Z,44.60
2018-02-05T08:02:49.571Z,44.30
2018-02-05T08:05:17.027Z,44.40
2018-02-05T08:07:44.664Z,44.00
2018-02-05T08:10:12.128Z,44.30
2018-02-05T08:12:39.612Z,44.00
2018-02-05T08:15:07.064Z,43.50
2018-02-05T08:17:34.491Z,44.20
2018-02-05T08:20:02.900Z,43.70
2018-02-05T08:22:30.357Z,43.10
2018-02-05T08:24:57.843Z,42.90
2018-02-05T08:27:25.270Z,42.90
2018-02-05T08:29:52.833Z,42.90
2018-02-05T08:32:20.269Z,42.10
2018-02-05T08:34:47.741Z,42.40
2018-02-05T08:37:15.191Z,42.20
2018-02-05T08:39:42.845Z,41.90
2018-02-05T08:42:10.414Z,41.90
2018-02-05T08:44:38.044Z,41.10
2018-02-05T08:47:05.527Z,41.00
2018-02-05T08:49:32.959Z,40.80
2018-02-05T08:52:00.379Z,40.90
2018-02-05T08:54:28.363Z,41.00
2018-02-05T08:56:55.969Z,40.20
2018-02-05T08:59:23.398Z,39.90
2018-02-05T09:01:50.975Z,39.70
2018-02-05T09:04:18.436Z,40.00
2018-02-05T09:06:45.871Z,39.40
2018-02-05T09:09:13.291Z,40.10
2018-02-05T09:11:40.803Z,39.50
2018-02-05T09:14:08.220Z,39.50
2018-02-05T09:16:35.712Z,39.10
2018-02-05T09:19:03.132Z,38.80
2018-02-05T09:21:30.567Z,38.40
2018-02-05T09:23:58.083Z,38.30
2018-02-05T09:26:25.515Z,38.00
2018-02-05T09:28:52.944Z,37.50
2018-02-05T09:31:20.475Z,37.00
2018-02-05T09:33:47.906Z,37.00
2018-02-05T09:36:15.358Z,35.60
2018-02-05T09:38:42.819Z,35.30
2018-02-05T09:41:10.251Z,35.00
2018-02-05T09:43:37.671Z,35.00
2018-02-05T09:46:05.106Z,34.20
2018-02-05T09:48:32.523Z,34.00
2018-02-05T09:51:00.104Z,34.60
2018-02-05T09:53:27.527Z,32.80
2018-02-05T09:55:54.972Z,31.90
2018-02-05T09:58:22.412Z,32.10
2018-02-05T10:00:49.923Z,30.00
2018-02-05T10:03:17.383Z,30.00
2018-02-05T10:05:44.847Z,29.70
2018-02-05T10:08:12.603Z,29.00
2018-02-05T10:10:40.028Z,28.10
2018-02-05T10:13:07.517Z,28.50
2018-02-05T10:15:34.973Z,26.50
2018-02-05T10:18:02.399Z,25.90
2018-02-05T10:20:29.884Z,25.00
2018-02-05T10:22:57.642Z,26.70
2018-02-05T10:25:25.068Z,27.60
2018-02-05T10:27:52.500Z,25.20
2018-02-05T10:30:20.068Z,25.30
2018-02-05T10:32:47.779Z,24.70
2018-02-05T10:35:15.207Z,24.70
2018-02-05T10:37:42.644Z,25.40
2018-02-05T10:40:10.148Z,23.80
2018-02-05T10:42:37.907Z,22.80
2018-02-05T10:45:05.367Z,21.90
2018-02-05T10:47:32.788Z,23.20
2018-02-05T10:50:00.239Z,22.10
2018-02-05T10:52:27.664Z,22.60
2018-02-05T10:54:55.091Z,22.20
2018-02-05T10:57:22.523Z,22.60
2018-02-05T10:59:50.101Z,21.70
2018-02-05T11:02:17.601Z,21.20
2018-02-05T11:04:45.320Z,20.60
2018-02-05T11:07:12.747Z,21.10
2018-02-05T11:09:40.190Z,20.70
2018-02-05T11:12:07.700Z,19.60
2018-02-05T11:14:35.457Z,19.80
2018-02-05T11:17:02.871Z,18.80
2018-02-05T11:19:30.298Z,19.20
2018-02-05T11:21:57.728Z,18.70
2018-02-05T11:24:25.215Z,18.30
2018-02-05T11:26:52.759Z,19.00
2018-02-05T11:29:20.195Z,19.10
2018-02-05T11:31:47.627Z,17.30
2018-02-05T11:34:15.107Z,17.50
2018-02-05T11:36:42.532Z,16.90
2018-02-05T11:39:10.024Z,17.60
2018-02-05T11:41:37.454Z,17.50
2018-02-05T11:44:04.881Z,16.90
2018-02-05T11:46:32.387Z,17.50
2018-02-05T11:48:59.842Z,15.90
2018-02-05T11:51:27.299Z,14.80
2018-02-05T11:53:54.724Z,13.90
2018-02-05T11:56:22.268Z,14.90
2018-02-05T11:58:49.841Z,15.60
2018-02-05T12:01:18.047Z,14.80
2018-02-05T12:03:45.469Z,14.80
2018-02-05T12:06:12.896Z,13.80
2018-02-05T12:08:41.335Z,12.50
2018-02-05T12:11:08.768Z,12.50
2018-02-05T12:13:36.193Z,13.30
2018-02-05T12:16:03.720Z,12.60
2018-02-05T12:18:31.140Z,12.60
2018-02-05T12:20:58.624Z,13.10
2018-02-05T12:23:26.060Z,13.90
2018-02-05T12:25:53.532Z,13.80
2018-02-05T12:28:20.988Z,12.30
2018-02-05T12:30:48.448Z,13.30
2018-02-05T12:33:15.908Z,13.20
2018-02-05T12:35:43.491Z,13.70
2018-02-05T12:38:11.121Z,14.40
2018-02-05T12:40:38.548Z,13.10
2018-02-05T12:43:05.975Z,13.20
2018-02-05T12:45:33.485Z,13.80
2018-02-05T12:48:00.952Z,14.30
2018-02-05T12:50:28.366Z,14.10
2018-02-05T12:52:55.909Z,12.50
2018-02-05T12:55:23.620Z,12.60
2018-02-05T12:57:51.596Z,12.60
2018-02-05T13:00:22.869Z,12.50
2018-02-05T13:02:56.076Z,13.80
2018-02-05T13:05:24.405Z,11.80
2018-02-05T13:07:51.964Z,11.10
2018-02-05T13:10:19.648Z,11.00
2018-02-05T13:12:47.107Z,11.30
2018-02-05T13:15:14.512Z,12.00
2018-02-05T13:17:42.007Z,10.70
2018-02-05T13:20:09.456Z,10.70
2018-02-05T13:22:37.027Z,10.80
2018-02-05T13:25:04.547Z,9.20
2018-02-05T13:27:32.223Z,7.10
2018-02-05T13:29:59.933Z,5.90
2018-02-05T13:32:28.369Z,4.30
2018-02-05T13:34:55.795Z,4.30
2018-02-05T13:37:23.214Z,3.20
2018-02-05T13:39:50.737Z,1.60
2018-02-05T13:42:18.196Z,1.00
2018-02-05T13:44:45.614Z,1.00
2018-02-05T13:47:13.094Z,1.00
2018-02-05T13:49:40.564Z,1.00
2018-02-05T13:52:08.004Z,1.00
2018-02-05T13:54:35.431Z,1.00
2018-02-05T13:57:02.923Z,1.00
2018-02-05T13:59:30.347Z,1.00
2018-02-05T14:01:57.767Z,1.00
2018-02-05T14:04:25.199Z,1.00
2018-02-05T14:06:52.708Z,1.00
2018-02-05T14:09:20.216Z,1.00
2018-02-05T14:11:47.639Z,1.00
2018-02-05T14:14:15.126Z,1.00
2018-02-05T14:16:42.547Z,1.00
2018-02-05T14:19:10.882Z,1.00
2018-02-05T14:21:38.416Z,1.00
2018-02-05T14:24:05.846Z,1.00
2018-02-05T14:26:33.295Z,1.00
2018-02-05T14:29:00.727Z,1.00
2018-02-05T14:31:28.157Z,1.00
2018-02-05T14:33:55.692Z,1.00
2018-02-05T14:36:22.742Z,1.00
2018-02-05T14:38:50.297Z,1.00
2018-02-05T14:41:17.724Z,1.00
2018-02-05T14:43:45.154Z,1.00
2018-02-05T14:46:12.667Z,1.00
2018-02-05T14:48:40.097Z,1.00
2018-02-05T14:51:07.508Z,1.00
2018-02-05T14:53:34.933Z,1.00
2018-02-05T14:56:02.499Z,1.00
2018-02-05T14:58:29.936Z,1.00
2018-02-05T15:00:57.359Z,1.00
2018-02-05T15:03:25.725Z,1.00
2018-02-05T15:05:53.239Z,1.00
2018-02-05T15:08:20.663Z,1.00
2018-02-05T15:10:48.155Z,1.00
2018-02-05T15:13:15.616Z,1.00
2018-02-05T15:15:43.023Z,1.00
2018-02-05T15:18:10.523Z,1.00
2018-02-05T15:20:37.981Z,1.00
2018-02-05T15:23:05.412Z,1.00
2018-02-05T15:25:32.819Z,1.00
2018-02-05T15:28:00.352Z,1.00
2018-02-05T15:30:27.779Z,1.00
2018-02-05T15:32:55.213Z,1.00
2018-02-05T15:35:22.634Z,1.00
2018-02-05T15:37:50.076Z,1.00
2018-02-05T15:40:17.500Z,1.00
2018-02-05T15:42:45.026Z,1.00
2018-02-05T15:45:12.499Z,1.00
2018-02-05T15:47:39.920Z,1.50
2018-02-05T15:50:07.450Z,3.60
2018-02-05T15:52:34.920Z,6.00
2018-02-05T15:55:02.679Z,7.50
2018-02-05T15:57:30.116Z,8.80
2018-02-05T15:59:57.528Z,9.20
2018-02-05T16:02:24.947Z,11.00
2018-02-05T16:04:52.428Z,11.30
2018-02-05T16:07:19.862Z,12.40
2018-02-05T16:09:47.415Z,13.70
2018-02-05T16:12:14.840Z,14.40
2018-02-05T16:14:42.267Z,15.20
2018-02-05T16:17:09.783Z,16.30
2018-02-05T16:19:37.203Z,17.60
2018-02-05T16:22:04.740Z,18.60
2018-02-05T16:24:32.159Z,19.30
2018-02-05T16:26:59.949Z,19.40
2018-02-05T16:29:28.361Z,19.50
2018-02-05T16:31:56.016Z,20.30
2018-02-05T16:34:23.443Z,20.50
2018-02-05T16:36:50.962Z,20.80
2018-02-05T16:39:19.596Z,21.20
2018-02-05T16:41:47.026Z,21.40
2018-02-05T16:44:14.452Z,21.80
2018-02-05T16:46:42.030Z,22.60
2018-02-05T16:49:09.476Z,23.00
2018-02-05T16:51:36.908Z,23.10
2018-02-05T16:54:04.341Z,23.90
2018-02-05T16:56:32.047Z,23.80
2018-02-05T16:58:59.543Z,24.30
2018-02-05T17:01:27.091Z,24.20
2018-02-05T17:03:54.700Z,24.10
2018-02-05T17:06:22.168Z,24.60
2018-02-05T17:08:49.747Z,24.50
2018-02-05T17:11:17.175Z,24.90
2018-02-05T17:13:44.595Z,25.10
2018-02-05T17:16:12.020Z,25.10
2018-02-05T17:18:39.457Z,25.50
2018-02-05T17:21:06.976Z,25.40
2018-02-05T17:23:34.392Z,25.80
2018-02-05T17:26:01.813Z,26.20
2018-02-05T17:28:29.395Z,26.60
2018-02-05T17:30:56.846Z,26.60
2018-02-05T17:33:24.323Z,26.70
2018-02-05T17:35:51.761Z,26.40
2018-02-05T17:38:19.195Z,26.70
2018-02-05T17:40:46.632Z,27.40
2018-02-05T17:43:14.969Z,27.40
2018-02-05T17:45:42.402Z,27.40
2018-02-05T17:48:09.819Z,27.10
2018-02-05T17:50:38.220Z,27.50
2018-02-05T17:53:05.715Z,27.50
2018-02-05T17:55:33.370Z,27.10
2018-02-05T17:58:00.802Z,27.40
2018-02-05T18:00:28.674Z,27.60
2018-02-05T18:02:56.524Z,27.80
2018-02-05T18:05:24.011Z,27.50
2018-02-05T18:07:51.439Z,27.50
2018-02-05T18:10:18.872Z,27.80
2018-02-05T18:12:46.375Z,28.70
2018-02-05T18:15:13.821Z,28.40
2018-02-05T18:17:41.298Z,29.00
2018-02-05T18:20:08.738Z,28.60
2018-02-05T18:22:36.156Z,29.00
2018-02-05T18:25:03.655Z,29.00
2018-02-05T18:27:31.067Z,29.30
2018-02-05T18:29:58.571Z,29.20
2018-02-05T18:32:26.333Z,30.30
2018-02-05T18:34:53.764Z,29.80
2018-02-05T18:37:21.190Z,30.20
2018-02-05T18:39:48.624Z,29.80
2018-02-05T18:42:16.084Z,30.20
2018-02-05T18:44:43.624Z,30.20
2018-02-05T18:47:11.252Z,29.50
2018-02-05T18:49:38.704Z,30.20
2018-02-05T18:52:06.211Z,29.90
2018-02-05T18:54:33.667Z,30.00
2018-02-05T18:57:01.251Z,30.00
2018-02-05T18:59:28.965Z,30.00
2018-02-05T19:02:08.402Z,31.00
2018-02-05T19:04:35.864Z,30.90
2018-02-05T19:07:04.064Z,31.10
2018-02-05T19:09:31.492Z,30.70
2018-02-05T19:11:58.923Z,30.70
2018-02-05T19:14:26.601Z,31.00
2018-02-05T19:16:54.059Z,31.10
2018-02-05T19:19:21.479Z,31.30
2018-02-05T19:21:48.970Z,31.10
2018-02-05T19:24:16.432Z,31.60
2018-02-05T19:26:43.864Z,32.00
2018-02-05T19:29:11.336Z,31.10
2018-02-05T19:31:38.772Z,31.70
2018-02-05T19:34:06.262Z,31.00
2018-02-05T19:36:33.712Z,31.50
2018-02-05T19:39:01.344Z,31.20
2018-02-05T19:41:28.931Z,31.40
2018-02-05T19:43:56.360Z,31.10
2018-02-05T19:46:23.793Z,31.10
2018-02-05T19:48:51.227Z,30.60
2018-02-05T19:51:18.660Z,30.50
2018-02-05T19:53:46.088Z,29.90
2018-02-05T19:56:13.661Z,30.60
2018-02-05T19:58:41.131Z,30.40
2018-02-05T20:01:08.573Z,30.30
2018-02-05T20:03:36.036Z,30.40
2018-02-05T20:06:04.132Z,29.90
2018-02-05T20:08:31.575Z,30.10
2018-02-05T20:10:59.020Z,30.10
2018-02-05T20:13:26.675Z,30.30
2018-02-05T20:15:54.110Z,30.00
2018-02-05T20:18:21.696Z,30.40
2018-02-05T20:20:49.331Z,30.20
2018-02-05T20:23:16.832Z,30.20
2018-02-05T20:25:44.271Z,30.30
2018-02-05T20:28:11.781Z,30.00
2018-02-05T20:30:39.284Z,30.40
2018-02-05T20:33:06.811Z,29.90
2018-02-05T20:35:34.240Z,30.60
2018-02-05T20:38:01.776Z,30.30
2018-02-05T20:40:29.203Z,30.70
2018-02-05T20:42:56.977Z,31.00
2018-02-05T20:45:24.839Z,30.30
2018-02-05T20:47:52.265Z,30.50
2018-02-05T20:50:19.820Z,30.40
2018-02-05T20:52:48.001Z,30.50
2018-02-05T20:55:15.555Z,30.90
2018-02-05T20:57:43.143Z,30.90
2018-02-05T21:00:10.571Z,31.00
2018-02-05T21:02:38.067Z,30.20
2018-02-05T21:05:05.519Z,29.80
2018-02-05T21:07:32.971Z,29.80
2018-02-05T21:10:00.424Z,30.00
2018-02-05T21:12:27.865Z,29.90
2018-02-05T21:14:55.287Z,30.30
2018-02-05T21:17:22.804Z,30.20
2018-02-05T21:19:50.568Z,30.50
2018-02-05T21:22:18.005Z,30.10
2018-02-05T21:24:45.471Z,30.10
2018-02-05T21:27:12.928Z,30.00
2018-02-05T21:29:40.576Z,30.50
2018-02-05T21:32:08.151Z,30.70
2018-02-05T21:34:35.693Z,29.80
2018-02-05T21:37:03.241Z,29.90
2018-02-05T21:39:30.708Z,30.10
2018-02-05T21:41:58.148Z,30.00
2018-02-05T21:44:25.747Z,30.40
2018-02-05T21:46:53.391Z,30.50
2018-02-05T21:49:20.954Z,30.30
2018-02-05T21:51:48.411Z,30.40
2018-02-05T21:54:15.846Z,30.40
2018-02-05T21:56:43.269Z,30.50
2018-02-05T21:59:10.784Z,30.60
2018-02-05T22:01:38.237Z,31.00
2018-02-05T22:04:05.697Z,30.50
2018-02-05T22:06:33.149Z,30.50
2018-02-05T22:09:00.599Z,30.70
2018-02-05T22:11:28.070Z,31.40
2018-02-05T22:13:55.707Z,31.20
2018-02-05T22:16:23.284Z,31.00
2018-02-05T22:18:50.730Z,30.90
2018-02-05T22:21:18.171Z,31.70
2018-02-05T22:23:45.598Z,31.40
2018-02-05T22:26:13.805Z,31.30
2018-02-05T22:28:41.231Z,31.20
2018-02-05T22:31:08.855Z,31.50
2018-02-05T22:33:36.281Z,31.40
2018-02-05T22:36:03.730Z,31.50
2018-02-05T22:38:31.309Z,31.60
2018-02-05T22:40:58.742Z,31.70
2018-02-05T22:43:26.163Z,31.30
2018-02-05T22:45:53.588Z,31.30
2018-02-05T22:48:21.048Z,31.20
2018-02-05T22:50:48.492Z,31.00
2018-02-05T22:53:16.039Z,31.30
2018-02-05T22:55:43.466Z,31.10
2018-02-05T22:58:10.909Z,31.50
2018-02-05T23:00:38.415Z,31.00
2018-02-05T23:03:05.871Z,30.80
2018-02-05T23:05:33.299Z,30.70
2018-02-05T23:08:00.735Z,30.40
2018-02-05T23:10:28.160Z,30.70
2018-02-05T23:12:55.611Z,30.50
2018-02-05T23:15:23.228Z,30.40
2018-02-05T23:17:50.796Z,30.40
2018-02-05T23:20:18.299Z,30.70
2018-02-05T23:22:45.748Z,30.10
2018-02-05T23:25:13.361Z,30.10
2018-02-05T23:27:40.723Z,30.00
2018-02-05T23:30:08.526Z,30.00
2018-02-05T23:32:35.953Z,30.00
2018-02-05T23:35:03.385Z,30.00
2018-02-05T23:37:30.872Z,29.80
2018-02-05T23:39:58.310Z,29.70
2018-02-05T23:42:25.798Z,29.90
2018-02-05T23:44:53.248Z,30.00
2018-02-05T23:47:20.660Z,29.60
2018-02-05T23:49:48.151Z,29.60
2018-02-05T23:52:15.634Z,29.60
2018-02-05T23:54:43.063Z,30.00
2018-02-05T23:57:10.515Z,30.30
2018-02-05T23:59:37.956Z,29.80
